createdAt,value
2018-04-13T08:20:28.747Z,253.13
2018-04-13T08:21:28.612Z,247.50
2018-04-13T08:23:32.473Z,241.88
2018-04-13T08:24:32.358Z,230.63
2018-04-13T08:25:32.311Z,230.63
2018-04-13T08:26:32.195Z,230.63
2018-04-13T08:27:32.121Z,236.25
2018-04-13T08:28:32.044Z,247.50
2018-04-13T08:29:31.970Z,253.13
2018-04-13T08:30:31.948Z,230.63
2018-04-13T08:31:31.815Z,225.00
2018-04-13T08:32:31.743Z,213.75
2018-04-13T08:33:31.669Z,219.38
2018-04-13T08:34:31.590Z,230.63
2018-04-13T08:35:31.593Z,236.25
2018-04-13T08:36:31.443Z,219.38
2018-04-13T08:37:31.366Z,219.38
2018-04-13T08:38:31.290Z,219.38
2018-04-13T08:39:31.214Z,213.75
2018-04-13T08:40:31.174Z,213.75
2018-04-13T08:41:31.066Z,208.13
2018-04-13T08:42:31.008Z,208.13
2018-04-13T08:43:30.957Z,208.13
2018-04-13T08:44:30.841Z,208.13
2018-04-13T08:45:30.778Z,208.13
2018-04-13T08:46:30.692Z,202.50
2018-04-13T08:47:30.613Z,202.50
2018-04-13T08:48:30.576Z,196.88
2018-04-13T08:49:30.464Z,196.88
2018-04-13T08:50:30.400Z,191.25
2018-04-13T08:51:30.315Z,191.25
2018-04-13T08:52:30.244Z,191.25
2018-04-13T08:53:30.166Z,185.63
2018-04-13T08:54:30.096Z,185.63
2018-04-13T08:55:30.014Z,185.63
2018-04-13T08:56:29.939Z,185.63
2018-04-13T08:57:29.872Z,180.00
2018-04-13T08:58:29.794Z,180.00
2018-04-13T08:59:29.715Z,180.00
2018-04-13T09:00:29.642Z,180.00
2018-04-13T09:01:29.570Z,180.00
2018-04-13T09:02:29.506Z,180.00
2018-04-13T09:03:29.425Z,180.00
2018-04-13T09:04:29.342Z,180.00
2018-04-13T09:05:29.267Z,180.00
2018-04-13T09:06:29.248Z,180.00
2018-04-13T09:07:29.122Z,180.00
2018-04-13T09:08:29.047Z,180.00
2018-04-13T09:09:28.968Z,180.00
2018-04-13T09:10:28.893Z,180.00
2018-04-13T09:11:28.821Z,174.38
2018-04-13T09:12:28.747Z,174.38
2018-04-13T09:13:28.719Z,174.38
2018-04-13T09:14:28.616Z,174.38
2018-04-13T09:15:28.522Z,174.38
2018-04-13T09:16:28.446Z,174.38
2018-04-13T09:17:28.372Z,174.38
2018-04-13T09:18:28.297Z,174.38
2018-04-13T09:19:28.224Z,174.38
2018-04-13T09:20:28.152Z,174.38
2018-04-13T09:21:28.074Z,174.38
2018-04-13T09:22:27.998Z,180.00
2018-04-13T09:23:27.927Z,180.00
2018-04-13T09:24:27.855Z,180.00
2018-04-13T09:25:27.777Z,180.00
2018-04-13T09:26:27.706Z,180.00
2018-04-13T09:27:27.628Z,180.00
2018-04-13T09:28:27.553Z,174.38
2018-04-13T09:29:27.482Z,180.00
2018-04-13T09:30:27.403Z,180.00
2018-04-13T09:31:27.354Z,135.00
2018-04-13T09:32:27.257Z,180.00
2018-04-13T09:33:27.181Z,180.00
2018-04-13T09:34:27.106Z,180.00
2018-04-13T09:35:27.036Z,180.00
2018-04-13T09:36:26.958Z,180.00
2018-04-13T09:37:26.906Z,180.00
2018-04-13T09:38:26.819Z,180.00
2018-04-13T09:39:26.733Z,180.00
2018-04-13T09:40:26.664Z,180.00
2018-04-13T09:41:26.591Z,180.00
2018-04-13T09:42:26.514Z,180.00
2018-04-13T09:43:26.439Z,185.63
2018-04-13T09:44:26.428Z,185.63
2018-04-13T09:45:26.290Z,185.63
2018-04-13T09:46:26.248Z,185.63
2018-04-13T09:47:26.148Z,191.25
2018-04-13T09:48:26.068Z,191.25
2018-04-13T09:49:25.994Z,191.25
2018-04-13T09:50:25.921Z,191.25
2018-04-13T09:51:25.845Z,196.88
2018-04-13T09:52:25.772Z,196.88
2018-04-13T09:53:25.699Z,202.50
2018-04-13T09:54:25.627Z,202.50
2018-04-13T09:55:25.560Z,208.13
2018-04-13T09:56:25.487Z,208.13
2018-04-13T09:57:25.458Z,213.75
2018-04-13T09:58:25.379Z,213.75
2018-04-13T09:59:25.305Z,213.75
2018-04-13T10:00:25.183Z,219.38
2018-04-13T10:01:25.109Z,225.00
2018-04-13T10:02:25.037Z,230.63
2018-04-13T10:03:24.958Z,230.63
2018-04-13T10:04:24.890Z,236.25
2018-04-13T10:05:24.811Z,241.88
2018-04-13T10:06:24.738Z,247.50
2018-04-13T10:07:24.666Z,230.63
2018-04-13T10:08:24.591Z,258.75
2018-04-13T10:09:24.520Z,270.00
2018-04-13T10:10:24.450Z,281.25
2018-04-13T10:11:24.371Z,320.63
2018-04-13T10:12:24.296Z,326.25
2018-04-13T10:13:24.230Z,343.13
2018-04-13T10:14:24.150Z,360.00
2018-04-13T10:15:24.162Z,360.00
2018-04-13T10:16:24.004Z,461.25
2018-04-13T10:17:23.936Z,506.25
2018-04-13T10:18:23.859Z,523.13
2018-04-13T10:19:23.797Z,517.50
2018-04-13T10:20:23.713Z,534.38
2018-04-13T10:21:23.670Z,534.38
2018-04-13T10:22:23.573Z,562.50
2018-04-13T10:23:23.512Z,562.50
2018-04-13T10:24:23.422Z,579.38
2018-04-13T10:25:23.349Z,556.88
2018-04-13T10:26:23.283Z,534.38
2018-04-13T10:27:23.207Z,545.63
2018-04-13T10:28:23.131Z,556.88
2018-04-13T10:29:23.084Z,506.25
2018-04-13T10:30:22.987Z,511.88
2018-04-13T10:31:22.916Z,466.88
2018-04-13T10:32:22.850Z,472.50
2018-04-13T10:33:22.775Z,461.25
2018-04-13T10:34:22.721Z,495.00
2018-04-13T10:35:22.631Z,523.13
2018-04-13T10:36:22.555Z,478.13
2018-04-13T10:37:22.484Z,466.88
2018-04-13T10:38:22.434Z,483.75
2018-04-13T10:39:22.341Z,483.75
2018-04-13T10:40:22.271Z,511.88
2018-04-13T10:41:22.253Z,523.13
2018-04-13T10:42:22.126Z,540.00
2018-04-13T10:43:22.054Z,551.25
2018-04-13T10:44:21.996Z,534.38
2018-04-13T10:45:21.912Z,551.25
2018-04-13T10:46:21.843Z,540.00
2018-04-13T10:47:21.783Z,528.75
2018-04-13T10:48:21.713Z,551.25
2018-04-13T10:49:21.674Z,596.25
2018-04-13T10:50:21.560Z,635.63
2018-04-13T10:51:21.486Z,551.25
2018-04-13T10:52:21.720Z,568.13
2018-04-13T10:53:21.344Z,523.13
2018-04-13T10:54:21.271Z,607.50
2018-04-13T10:55:21.203Z,590.63
2018-04-13T10:56:21.134Z,585.00
2018-04-13T10:57:21.094Z,528.75
2018-04-13T10:58:20.985Z,472.50
2018-04-13T10:59:20.916Z,495.00
2018-04-13T11:00:20.847Z,517.50
2018-04-13T11:01:20.780Z,562.50
2018-04-13T11:02:20.707Z,551.25
2018-04-13T11:03:20.633Z,523.13
2018-04-13T11:04:20.559Z,472.50
2018-04-13T11:05:20.490Z,483.75
2018-04-13T11:06:20.419Z,438.75
2018-04-13T11:07:20.345Z,393.75
2018-04-13T11:08:20.276Z,348.75
2018-04-13T11:09:20.203Z,298.13
2018-04-13T11:10:20.187Z,270.00
2018-04-13T11:11:20.060Z,236.25
2018-04-13T11:12:19.987Z,196.88
2018-04-13T11:13:19.917Z,174.38
2018-04-13T11:14:19.845Z,157.50
2018-04-13T11:15:19.791Z,151.88
2018-04-13T11:16:19.700Z,151.88
2018-04-13T11:17:19.651Z,151.88
2018-04-13T11:18:19.557Z,163.13
2018-04-13T11:19:19.483Z,163.13
2018-04-13T11:20:19.416Z,174.38
2018-04-13T11:21:19.355Z,185.63
2018-04-13T11:22:19.267Z,202.50
2018-04-13T11:23:19.203Z,196.88
2018-04-13T11:24:19.121Z,202.50
2018-04-13T11:25:19.052Z,208.13
2018-04-13T11:26:18.975Z,213.75
2018-04-13T11:27:18.909Z,225.00
2018-04-13T11:28:18.833Z,225.00
2018-04-13T11:29:18.758Z,213.75
2018-04-13T11:30:18.688Z,208.13
2018-04-13T11:31:18.614Z,202.50
2018-04-13T11:32:18.541Z,202.50
2018-04-13T11:33:18.465Z,219.38
2018-04-13T11:34:18.392Z,236.25
2018-04-13T11:35:18.325Z,247.50
2018-04-13T11:36:18.245Z,264.38
2018-04-13T11:37:18.172Z,286.88
2018-04-13T11:38:18.100Z,281.25
2018-04-13T11:39:18.027Z,253.13
2018-04-13T11:40:17.954Z,241.88
2018-04-13T11:41:17.886Z,253.13
2018-04-13T11:42:17.807Z,264.38
2018-04-13T11:43:17.734Z,270.00
2018-04-13T11:44:17.659Z,281.25
2018-04-13T11:45:17.590Z,298.13
2018-04-13T11:46:17.513Z,320.63
2018-04-13T11:47:17.456Z,365.63
2018-04-13T11:48:17.372Z,405.00
2018-04-13T11:49:17.297Z,444.38
2018-04-13T11:50:17.225Z,517.50
2018-04-13T11:51:17.148Z,646.88
2018-04-13T11:52:17.084Z,748.13
2018-04-13T11:53:17.002Z,607.50
2018-04-13T11:54:16.957Z,652.50
2018-04-13T11:55:16.856Z,472.50
2018-04-13T11:56:16.786Z,450.00
2018-04-13T11:57:16.709Z,444.38
2018-04-13T11:58:16.645Z,427.50
2018-04-13T11:59:16.586Z,405.00
2018-04-13T12:00:16.490Z,388.13
2018-04-13T12:01:16.419Z,360.00
2018-04-13T12:02:16.357Z,303.75
2018-04-13T12:03:16.276Z,264.38
2018-04-13T12:04:16.201Z,253.13
2018-04-13T12:05:16.130Z,236.25
2018-04-13T12:06:16.056Z,213.75
2018-04-13T12:07:15.988Z,202.50
2018-04-13T12:08:15.914Z,196.88
2018-04-13T12:09:15.839Z,191.25
2018-04-13T12:10:15.765Z,185.63
2018-04-13T12:11:15.709Z,180.00
2018-04-13T12:12:15.618Z,174.38
2018-04-13T12:13:15.559Z,174.38
2018-04-13T12:14:15.477Z,174.38
2018-04-13T12:15:15.400Z,174.38
2018-04-13T12:16:15.328Z,168.75
2018-04-13T12:17:15.252Z,168.75
2018-04-13T12:18:15.178Z,168.75
2018-04-13T12:19:15.113Z,163.13
2018-04-13T12:20:15.039Z,163.13
2018-04-13T12:21:14.963Z,163.13
2018-04-13T12:22:14.913Z,168.75
2018-04-13T12:23:14.813Z,168.75
2018-04-13T12:24:14.772Z,168.75
2018-04-13T12:25:14.674Z,174.38
2018-04-13T12:26:14.592Z,180.00
2018-04-13T12:27:14.563Z,180.00
2018-04-13T12:28:14.447Z,180.00
2018-04-13T12:29:14.396Z,185.63
2018-04-13T12:30:14.300Z,196.88
2018-04-13T12:31:14.241Z,202.50
2018-04-13T12:32:14.151Z,213.75
2018-04-13T12:33:14.078Z,225.00
2018-04-13T12:34:14.009Z,236.25
2018-04-13T12:35:13.931Z,247.50
2018-04-13T12:36:13.865Z,258.75
2018-04-13T12:37:13.785Z,270.00
2018-04-13T12:38:13.707Z,292.50
2018-04-13T12:39:13.634Z,298.13
2018-04-13T12:40:13.563Z,309.38
2018-04-13T12:41:13.486Z,326.25
2018-04-13T12:42:13.412Z,343.13
2018-04-13T12:43:13.341Z,360.00
2018-04-13T12:44:13.267Z,371.25
2018-04-13T12:45:13.195Z,388.13
2018-04-13T12:46:13.116Z,410.63
2018-04-13T12:47:13.045Z,421.88
2018-04-13T12:48:12.975Z,444.38
2018-04-13T12:49:12.897Z,472.50
2018-04-13T12:50:12.825Z,495.00
2018-04-13T12:51:12.749Z,517.50
2018-04-13T12:52:12.680Z,551.25
2018-04-13T12:53:12.661Z,568.13
2018-04-13T12:54:12.544Z,596.25
2018-04-13T12:55:12.734Z,641.25
2018-04-13T12:56:12.412Z,725.63
2018-04-13T12:57:12.310Z,798.75
2018-04-13T12:58:12.253Z,855.00
2018-04-13T12:59:12.164Z,911.25
2018-04-13T13:00:12.100Z,866.25
2018-04-13T13:01:12.020Z,911.25
2018-04-13T13:02:11.958Z,1164.38
2018-04-13T13:03:11.875Z,1198.13
2018-04-13T13:04:11.801Z,1440.00
2018-04-13T13:05:11.748Z,1597.50
2018-04-13T13:06:11.656Z,1591.88
2018-04-13T13:07:11.585Z,2109.38
2018-04-13T13:08:11.514Z,2486.25
2018-04-13T13:09:11.444Z,2351.25
2018-04-13T13:10:11.372Z,1918.13
2018-04-13T13:11:11.340Z,2227.50
2018-04-13T13:12:11.231Z,3200.63
2018-04-13T13:13:11.163Z,3841.88
2018-04-13T13:14:11.130Z,3999.38
2018-04-13T13:15:11.023Z,4106.25
2018-04-13T13:16:10.956Z,4308.75
2018-04-13T13:17:10.894Z,4578.75
2018-04-13T13:18:10.824Z,4410.00
2018-04-13T13:19:10.754Z,4556.25
2018-04-13T13:20:10.689Z,4545.00
2018-04-13T13:21:10.623Z,4635.00
2018-04-13T13:22:10.556Z,4612.50
2018-04-13T13:23:10.491Z,5011.88
2018-04-13T13:24:10.428Z,4595.63
2018-04-13T13:25:10.369Z,4078.13
2018-04-13T13:26:10.312Z,4151.25
2018-04-13T13:27:10.237Z,4466.25
2018-04-13T13:28:10.182Z,4398.75
2018-04-13T13:29:10.124Z,4061.25
2018-04-13T13:30:10.049Z,4246.88
2018-04-13T13:31:10.012Z,4865.63
2018-04-13T13:32:09.926Z,5101.88
2018-04-13T13:33:09.872Z,5130.00
2018-04-13T13:34:09.803Z,5073.75
2018-04-13T13:35:09.757Z,5220.00
2018-04-13T13:36:09.683Z,5400.00
2018-04-13T13:37:09.630Z,5388.75
2018-04-13T13:38:09.560Z,5124.38
2018-04-13T13:39:09.502Z,4876.88
2018-04-13T13:40:09.447Z,4460.63
2018-04-13T13:41:09.382Z,4387.50
2018-04-13T13:42:09.322Z,3813.75
2018-04-13T13:43:09.260Z,3571.88
2018-04-13T13:44:09.209Z,3391.88
2018-04-13T13:45:09.142Z,663.75
2018-04-13T13:46:09.081Z,1569.38
2018-04-13T13:47:09.021Z,2160.00
2018-04-13T13:48:08.964Z,624.38
2018-04-13T13:49:08.904Z,472.50
2018-04-13T13:50:08.839Z,444.38
2018-04-13T13:51:08.785Z,607.50
2018-04-13T13:52:08.718Z,573.75
2018-04-13T13:53:08.656Z,466.88
2018-04-13T13:54:08.595Z,421.88
2018-04-13T13:55:08.542Z,360.00
2018-04-13T13:56:08.481Z,371.25
2018-04-13T13:57:08.406Z,421.88
2018-04-13T13:58:08.355Z,427.50
2018-04-13T13:59:08.285Z,416.25
2018-04-13T14:00:08.213Z,354.38
2018-04-13T14:01:08.149Z,331.88
2018-04-13T14:02:08.097Z,343.13
2018-04-13T14:03:08.020Z,573.75
2018-04-13T14:04:08.011Z,466.88
2018-04-13T14:05:07.887Z,466.88
2018-04-13T14:06:07.818Z,416.25
2018-04-13T14:07:07.753Z,388.13
2018-04-13T14:08:07.683Z,343.13
2018-04-13T14:09:07.624Z,320.63
2018-04-13T14:10:07.559Z,320.63
2018-04-13T14:11:07.482Z,337.50
2018-04-13T14:12:07.416Z,393.75
2018-04-13T14:13:07.348Z,337.50
2018-04-13T14:14:07.286Z,354.38
2018-04-13T14:15:07.213Z,348.75
2018-04-13T14:16:07.161Z,315.00
2018-04-13T14:17:07.080Z,219.38
2018-04-13T14:18:07.006Z,174.38
2018-04-13T14:19:06.937Z,146.25
2018-04-13T14:20:06.879Z,129.38
2018-04-13T14:21:06.800Z,118.13
2018-04-13T14:22:07.157Z,106.88
2018-04-13T14:23:07.702Z,95.63
2018-04-13T14:24:06.593Z,95.63
2018-04-13T14:25:06.519Z,101.25
2018-04-13T14:26:06.468Z,106.88
2018-04-13T14:27:06.380Z,118.13
2018-04-13T14:28:06.330Z,118.13
2018-04-13T14:29:06.239Z,123.75
2018-04-13T14:30:06.168Z,129.38
2018-04-13T14:31:06.098Z,135.00
2018-04-13T14:32:06.031Z,129.38
2018-04-13T14:33:05.961Z,112.50
2018-04-13T14:34:05.883Z,84.38
2018-04-13T14:35:05.818Z,56.25
2018-04-13T14:36:05.742Z,33.75
2018-04-13T14:37:05.671Z,16.88
2018-04-13T14:38:05.601Z,11.25
2018-04-13T14:39:05.525Z,11.25
2018-04-13T14:40:05.491Z,11.25
2018-04-13T14:41:05.389Z,11.25
2018-04-13T14:42:05.314Z,11.25
2018-04-13T14:43:05.236Z,11.25
2018-04-13T14:44:05.165Z,11.25
2018-04-13T14:45:05.094Z,11.25
2018-04-13T14:46:05.030Z,11.25
2018-04-13T14:47:04.946Z,16.88
2018-04-13T14:48:04.876Z,16.88
2018-04-13T14:49:04.800Z,16.88
2018-04-13T14:50:04.760Z,16.88
2018-04-13T14:51:04.656Z,16.88
2018-04-13T14:52:04.585Z,16.88
2018-04-13T14:53:04.507Z,16.88
2018-04-13T14:54:04.441Z,16.88
2018-04-13T14:55:04.371Z,16.88
2018-04-13T14:56:04.282Z,11.25
2018-04-13T14:57:04.206Z,11.25
2018-04-13T14:58:04.135Z,16.88
2018-04-13T15:00:06.254Z,16.88
2018-04-13T15:01:04.004Z,16.88
2018-04-13T15:02:03.945Z,16.88
2018-04-13T15:03:03.860Z,16.88
2018-04-13T15:04:03.830Z,16.88
2018-04-13T15:05:03.784Z,16.88
2018-04-13T15:06:26.348Z,16.88
2018-04-13T15:07:06.420Z,16.88
2018-04-13T15:08:03.480Z,16.88
2018-04-13T15:09:03.406Z,16.88
2018-04-13T15:10:03.337Z,22.50
2018-04-13T15:11:03.972Z,22.50
2018-04-13T15:12:24.155Z,22.50
2018-04-13T15:13:03.093Z,22.50
